Time;durP1;ratioP1;P1;durP2;ratioP2;P2;SDS_P1;SDS_P2;PMS_P1;PMS_P2;Temp;Humidity;BMP_temperature;BMP_pressure;BME280_temperature;BME280_humidity;BME280_pressure;Samples;Min_cycle;Max_cycle;Signal;HPM_P1;HPM_P2
2022/06/17 00:02:05;;;;;;;29.10;27.50;;;15.90;99.90;;;;;;4990337;28;20231;-72
2022/06/17 00:04:32;;;;;;;31.07;29.40;;;15.70;99.90;;;;;;4990250;28;20216;-72
2022/06/17 00:07:02;;;;;;;31.57;29.77;;;15.70;99.90;;;;;;4990837;28;20189;-72
2022/06/17 00:09:30;;;;;;;31.07;29.47;;;15.70;99.90;;;;;;4990300;28;20184;-72
2022/06/17 00:11:56;;;;;;;34.70;33.00;;;15.70;99.90;;;;;;4990187;28;20300;-73
2022/06/17 00:14:26;;;;;;;34.10;32.40;;;15.70;99.90;;;;;;4991355;28;20631;-73
2022/06/17 00:16:52;;;;;;;29.83;28.43;;;15.70;99.90;;;;;;4990832;28;20188;-73
2022/06/17 00:19:19;;;;;;;32.77;31.17;;;15.70;99.90;;;;;;4991743;28;20522;-72
2022/06/17 00:21:49;;;;;;;30.20;28.40;;;15.70;99.90;;;;;;4990628;28;20204;-72
2022/06/17 00:24:22;;;;;;;37.97;35.67;;;15.60;99.90;;;;;;4989986;28;20259;-74
2022/06/17 00:26:48;;;;;;;31.77;29.67;;;15.60;99.90;;;;;;4989658;28;20232;-73
2022/06/17 00:29:17;;;;;;;45.23;42.57;;;15.60;99.90;;;;;;4991491;28;20183;-73
2022/06/17 00:31:43;;;;;;;28.60;27.20;;;15.50;99.90;;;;;;4991379;28;20198;-73
2022/06/17 00:34:09;;;;;;;28.13;26.67;;;15.50;99.90;;;;;;4991294;28;20208;-72
2022/06/17 00:36:35;;;;;;;45.07;42.43;;;15.50;99.90;;;;;;4991523;28;20238;-73
2022/06/17 00:39:03;;;;;;;37.03;34.60;;;15.50;99.90;;;;;;4989665;28;20226;-72
2022/06/17 00:41:33;;;;;;;34.27;32.37;;;15.50;99.90;;;;;;4990189;28;20597;-72
2022/06/17 00:44:01;;;;;;;48.10;44.10;;;15.40;99.90;;;;;;4990831;28;20211;-74
2022/06/17 00:46:46;;;;;;;70.50;66.93;;;15.20;99.90;;;;;;4991369;28;20211;-73
2022/06/17 00:49:37;;;;;;;89.63;85.23;;;15.20;99.90;;;;;;4991202;28;20552;-72
2022/06/17 00:52:08;;;;;;;109.07;103.60;;;15.20;99.90;;;;;;4991068;28;20206;-72
2022/06/17 00:54:47;;;;;;;92.17;87.60;;;15.20;99.90;;;;;;4990946;28;20184;-72
2022/06/17 00:57:25;;;;;;;91.10;86.33;;;15.20;99.90;;;;;;4990494;28;20192;-73
2022/06/17 01:00:21;;;;;;;56.03;53.17;;;15.00;99.90;;;;;;4990022;28;20184;-74
2022/06/17 01:02:49;;;;;;;53.33;50.63;;;14.90;99.90;;;;;;4982367;28;20227;-72
2022/06/17 01:05:17;;;;;;;49.40;46.87;;;14.90;99.90;;;;;;4990704;28;20647;-72
2022/06/17 01:07:49;;;;;;;41.67;39.30;;;14.80;99.90;;;;;;4990896;28;20247;-72
2022/06/17 01:10:16;;;;;;;36.67;34.73;;;14.70;99.90;;;;;;4994776;28;20191;-73
2022/06/17 01:12:57;;;;;;;39.30;37.27;;;14.80;99.90;;;;;;4993163;28;20247;-74
2022/06/17 01:15:26;;;;;;;28.30;26.90;;;14.70;99.90;;;;;;4993408;28;20184;-75
2022/06/17 01:17:52;;;;;;;20.37;18.97;;;14.60;99.90;;;;;;4992705;28;20192;-74
2022/06/17 01:20:20;;;;;;;20.80;19.70;;;14.50;99.90;;;;;;4994435;28;20246;-74
2022/06/17 01:23:09;;;;;;;12.63;11.93;;;14.40;99.90;;;;;;4994128;28;20211;-74
2022/06/17 01:25:39;;;;;;;14.07;13.27;;;14.40;99.90;;;;;;4994400;28;20219;-74
2022/06/17 01:28:08;;;;;;;12.03;11.03;;;14.40;99.90;;;;;;4993546;28;20180;-74
2022/06/17 01:30:44;;;;;;;22.83;21.53;;;14.30;99.90;;;;;;4993140;28;20275;-74
2022/06/17 01:33:17;;;;;;;23.20;22.00;;;14.30;99.90;;;;;;4992855;28;20176;-72
2022/06/17 01:36:03;;;;;;;24.13;22.60;;;14.30;99.90;;;;;;4993257;28;20184;-74
2022/06/17 01:38:30;;;;;;;22.13;20.77;;;14.20;99.90;;;;;;4992419;28;20180;-74
2022/06/17 01:40:58;;;;;;;19.60;18.47;;;14.20;99.90;;;;;;4993882;28;20181;-75
2022/06/17 01:43:40;;;;;;;18.60;17.60;;;14.10;99.90;;;;;;4994058;28;20691;-75
2022/06/17 01:46:11;;;;;;;15.83;14.83;;;14.10;99.90;;;;;;4993391;28;20230;-75
2022/06/17 01:48:43;;;;;;;16.40;15.50;;;14.00;99.90;;;;;;4992749;28;20188;-74
2022/06/17 01:51:11;;;;;;;13.80;12.87;;;14.00;99.90;;;;;;4993308;28;20590;-75
2022/06/17 01:53:43;;;;;;;12.07;11.20;;;14.00;99.90;;;;;;4993094;28;20360;-75
2022/06/17 01:56:13;;;;;;;12.47;11.63;;;14.00;99.90;;;;;;4994431;28;20215;-74
2022/06/17 01:58:49;;;;;;;11.90;11.20;;;14.00;99.90;;;;;;4992409;28;20184;-74
2022/06/17 02:01:16;;;;;;;11.77;10.97;;;13.90;99.90;;;;;;4993221;28;20215;-74
2022/06/17 02:03:49;;;;;;;12.07;11.27;;;13.80;99.90;;;;;;4993506;28;20204;-74
2022/06/17 02:06:22;;;;;;;87.37;82.37;;;13.70;99.90;;;;;;4992604;28;20183;-74
2022/06/17 02:08:48;;;;;;;101.47;96.07;;;13.60;99.90;;;;;;4991657;28;20207;-73
2022/06/17 02:11:15;;;;;;;92.30;87.47;;;13.60;99.90;;;;;;4993520;28;20235;-74
2022/06/17 02:13:40;;;;;;;96.70;91.67;;;13.60;99.90;;;;;;4993267;28;20191;-74
2022/06/17 02:16:08;;;;;;;85.03;80.60;;;13.60;99.90;;;;;;4992449;28;20180;-73
2022/06/17 02:18:35;;;;;;;89.77;85.10;;;13.60;99.90;;;;;;4992142;28;20184;-74
2022/06/17 02:21:05;;;;;;;86.23;81.77;;;13.60;99.90;;;;;;4991483;28;20271;-74
2022/06/17 02:23:32;;;;;;;75.60;71.70;;;13.60;99.90;;;;;;4992742;28;20294;-73
2022/06/17 02:26:00;;;;;;;74.67;70.67;;;13.60;99.90;;;;;;4993198;28;20191;-74
2022/06/17 02:28:29;;;;;;;61.10;57.70;;;13.60;99.90;;;;;;4992243;28;20196;-74
2022/06/17 02:30:56;;;;;;;55.07;52.27;;;13.60;99.90;;;;;;4992106;28;20286;-74
2022/06/17 02:33:23;;;;;;;49.10;46.43;;;13.60;99.90;;;;;;4992838;28;20524;-74
2022/06/17 02:36:11;;;;;;;48.10;45.17;;;13.50;99.90;;;;;;4993187;28;20664;-74
2022/06/17 02:38:39;;;;;;;35.13;33.27;;;13.40;99.90;;;;;;4991071;28;20188;-74
2022/06/17 02:41:10;;;;;;;46.97;44.40;;;13.40;99.90;;;;;;4993124;28;20314;-74
2022/06/17 02:43:45;;;;;;;55.30;52.30;;;13.30;99.90;;;;;;4991524;28;20299;-74
2022/06/17 02:46:15;;;;;;;56.97;53.77;;;13.30;99.90;;;;;;4991935;28;20673;-74
2022/06/17 02:48:48;;;;;;;50.07;47.57;;;13.30;99.90;;;;;;4992117;28;20188;-73
2022/06/17 02:51:16;;;;;;;53.10;50.00;;;13.30;99.90;;;;;;4992986;28;20231;-73
2022/06/17 02:53:42;;;;;;;47.00;44.50;;;13.20;99.90;;;;;;4992684;28;20564;-72
2022/06/17 02:56:18;;;;;;;59.23;56.03;;;13.20;99.90;;;;;;4991585;28;20191;-75
2022/06/17 02:59:13;;;;;;;53.47;50.60;;;13.00;99.90;;;;;;4991846;28;20187;-74
2022/06/17 03:01:41;;;;;;;32.93;30.97;;;13.00;99.90;;;;;;4986613;28;20227;-74
2022/06/17 03:04:14;;;;;;;29.50;27.80;;;13.00;99.90;;;;;;4991181;28;20592;-73
2022/06/17 03:06:45;;;;;;;30.07;28.47;;;13.00;99.90;;;;;;4992640;28;20271;-74
2022/06/17 03:09:30;;;;;;;37.10;34.90;;;13.00;99.90;;;;;;4992705;28;20180;-74
2022/06/17 03:12:02;;;;;;;34.57;32.70;;;13.00;99.90;;;;;;4991226;28;20207;-73
2022/06/17 03:14:33;;;;;;;16.60;15.30;;;13.00;99.90;;;;;;4992665;28;20334;-73
2022/06/17 03:17:02;;;;;;;21.33;19.73;;;13.10;99.90;;;;;;4991655;28;20185;-74
2022/06/17 03:19:31;;;;;;;24.73;23.33;;;13.20;99.90;;;;;;4991314;28;20560;-73
2022/06/17 03:21:57;;;;;;;58.20;55.07;;;13.30;99.90;;;;;;4992815;28;20212;-73
2022/06/17 03:24:31;;;;;;;69.53;65.93;;;13.30;99.90;;;;;;4992258;28;20853;-73
2022/06/17 03:27:07;;;;;;;71.33;67.60;;;13.30;99.90;;;;;;4991467;28;20188;-73
2022/06/17 03:29:34;;;;;;;58.97;55.97;;;13.40;99.90;;;;;;4991778;28;20226;-73
2022/06/17 03:32:04;;;;;;;13.33;12.37;;;13.40;99.90;;;;;;4990107;28;20200;-73
2022/06/17 03:34:42;;;;;;;45.73;43.37;;;13.40;99.90;;;;;;4990965;28;20192;-74
2022/06/17 03:37:11;;;;;;;15.83;14.93;;;13.40;99.90;;;;;;4991299;28;20214;-73
2022/06/17 03:39:40;;;;;;;13.30;12.60;;;13.40;99.90;;;;;;4991933;28;20235;-74
2022/06/17 03:42:20;;;;;;;12.57;11.67;;;13.30;99.90;;;;;;4990512;28;20215;-74
2022/06/17 03:45:16;;;;;;;14.23;13.43;;;13.30;99.90;;;;;;4992093;28;20298;-73
2022/06/17 03:47:57;;;;;;;16.77;15.50;;;13.30;99.90;;;;;;4987626;28;20295;-75
2022/06/17 03:50:36;;;;;;;24.80;23.50;;;13.30;99.90;;;;;;4990949;28;20180;-74
2022/06/17 03:53:06;;;;;;;12.27;11.57;;;13.40;99.90;;;;;;4990730;28;20204;-74
2022/06/17 03:55:33;;;;;;;10.43;9.90;;;13.40;99.90;;;;;;4991033;28;20243;-75
2022/06/17 03:58:01;;;;;;;16.00;15.03;;;13.40;99.90;;;;;;4989941;28;20379;-73
2022/06/17 04:00:35;;;;;;;13.07;12.37;;;13.60;99.90;;;;;;4987201;28;20677;-72
2022/06/17 04:03:03;;;;;;;9.70;8.87;;;13.70;99.90;;;;;;4986019;28;20210;-72
2022/06/17 04:05:30;;;;;;;9.77;9.10;;;13.70;99.90;;;;;;4991516;28;20271;-72
2022/06/17 04:07:56;;;;;;;9.37;8.77;;;13.80;99.90;;;;;;4990478;28;20188;-73
2022/06/17 04:10:26;;;;;;;9.03;8.33;;;13.80;99.90;;;;;;4991776;28;20724;-72
2022/06/17 04:12:52;;;;;;;13.00;12.00;;;13.80;99.90;;;;;;4991362;28;20208;-71
2022/06/17 04:15:50;;;;;;;18.23;16.93;;;13.90;99.90;;;;;;4991362;28;20610;-71
2022/06/17 04:18:16;;;;;;;23.17;21.33;;;13.90;99.90;;;;;;4971182;28;20192;-72
2022/06/17 04:20:50;;;;;;;43.00;40.67;;;14.00;99.90;;;;;;4970678;28;20560;-71
2022/06/17 04:23:28;;;;;;;86.07;81.70;;;14.00;99.90;;;;;;4986093;28;20526;-72
2022/06/17 04:26:17;;;;;;;94.73;89.83;;;14.00;99.90;;;;;;4990978;28;20187;-73
2022/06/17 04:28:49;;;;;;;81.20;77.17;;;14.00;99.90;;;;;;4989218;28;20185;-72
2022/06/17 04:31:24;;;;;;;103.00;97.70;;;14.00;99.90;;;;;;4989699;28;20220;-71
2022/06/17 04:34:15;;;;;;;101.33;96.33;;;14.20;99.90;;;;;;4991081;28;20183;-73
2022/06/17 04:37:00;;;;;;;87.77;83.43;;;14.30;99.90;;;;;;4991017;28;20185;-72
2022/06/17 04:39:43;;;;;;;36.83;34.60;;;14.40;99.90;;;;;;4989938;28;20681;-72
2022/06/17 04:42:41;;;;;;;38.40;36.37;;;14.40;99.90;;;;;;4991018;28;20704;-71
2022/06/17 04:45:24;;;;;;;12.43;9.07;;;14.60;99.90;;;;;;4993541;28;20204;-72
2022/06/17 04:47:50;;;;;;;11.53;10.60;;;14.60;99.90;;;;;;4993309;28;20180;-72
2022/06/17 04:50:19;;;;;;;11.03;10.33;;;14.70;99.90;;;;;;4996321;28;20299;-72
2022/06/17 04:52:49;;;;;;;9.20;8.40;;;14.80;99.90;;;;;;4995441;28;20232;-72
2022/06/17 04:55:43;;;;;;;34.27;31.90;;;15.00;99.90;;;;;;4996999;28;20263;-72
2022/06/17 04:58:15;;;;;;;42.47;40.30;;;15.30;99.90;;;;;;4993937;28;20198;-73
2022/06/17 05:00:45;;;;;;;17.77;16.73;;;15.40;99.90;;;;;;4994769;28;20188;-71
2022/06/17 05:03:12;;;;;;;9.27;7.97;;;15.60;99.90;;;;;;4994944;28;20275;-72
2022/06/17 05:05:42;;;;;;;7.47;6.87;;;15.90;99.90;;;;;;4993566;28;20223;-72
2022/06/17 05:08:25;;;;;;;10.60;9.77;;;16.20;99.90;;;;;;4993502;28;20242;-71
2022/06/17 05:10:58;;;;;;;18.30;17.20;;;16.50;99.90;;;;;;4977023;28;20184;-71
2022/06/17 05:13:40;;;;;;;13.17;12.37;;;16.80;99.90;;;;;;4993946;28;20177;-71
2022/06/17 05:16:12;;;;;;;13.87;13.03;;;17.10;99.90;;;;;;4994212;28;20268;-73
2022/06/17 05:18:38;;;;;;;13.63;12.83;;;17.50;99.90;;;;;;4989363;28;20691;-73
2022/06/17 05:21:07;;;;;;;13.03;12.30;;;17.80;99.90;;;;;;4993786;28;20211;-74
2022/06/17 05:23:34;;;;;;;58.10;55.13;;;18.30;99.90;;;;;;4991894;28;20181;-75
2022/06/17 05:26:00;;;;;;;28.13;26.63;;;18.70;99.90;;;;;;4992302;28;20263;-74
2022/06/17 05:28:26;;;;;;;9.40;8.80;;;18.90;99.90;;;;;;4992785;28;20177;-77
2022/06/17 05:30:55;;;;;;;8.63;8.03;;;19.10;99.90;;;;;;4993109;28;20222;-76
2022/06/17 05:33:21;;;;;;;11.10;10.30;;;19.60;99.90;;;;;;4973347;28;20571;-74
2022/06/17 05:35:48;;;;;;;13.38;12.65;;;20.00;99.90;;;;;;4974150;28;20177;-75
2022/06/17 05:38:14;;;;;;;12.50;11.57;;;20.20;99.90;;;;;;4973049;28;20189;-73
2022/06/17 05:40:41;;;;;;;12.57;11.77;;;20.20;99.90;;;;;;4973576;28;20177;-74
2022/06/17 05:43:07;;;;;;;11.20;10.50;;;20.50;99.90;;;;;;4980205;28;20752;-73
2022/06/17 05:45:33;;;;;;;25.38;23.73;;;20.80;99.90;;;;;;4994250;28;20355;-79
2022/06/17 05:47:59;;;;;;;20.48;19.17;;;21.30;99.90;;;;;;4992575;28;20243;-72
2022/06/17 05:50:26;;;;;;;18.55;17.52;;;21.70;99.90;;;;;;4992191;28;20184;-72
2022/06/17 05:53:02;;;;;;;17.65;16.70;;;22.20;99.90;;;;;;4993334;28;20343;-73
2022/06/17 05:55:30;;;;;;;12.65;11.82;;;22.60;99.90;;;;;;4992621;28;20215;-74
2022/06/17 05:57:57;;;;;;;8.38;7.85;;;22.70;99.90;;;;;;4992072;28;20184;-75
2022/06/17 06:00:24;;;;;;;10.50;9.73;;;22.80;99.90;;;;;;4993543;28;20254;-81
2022/06/17 06:02:54;;;;;;;10.00;9.40;;;22.90;99.90;;;;;;4991862;28;20739;-72
2022/06/17 06:05:21;;;;;;;9.35;8.75;;;23.10;99.90;;;;;;4994954;28;20258;-79
2022/06/17 06:07:48;;;;;;;16.83;15.55;;;23.50;99.90;;;;;;4995674;28;20184;-80
2022/06/17 06:10:14;;;;;;;23.10;21.77;;;23.90;99.90;;;;;;5000099;28;20185;-79
2022/06/17 06:15:29;;;;;;;26.00;24.58;;;23.90;97.80;;;;;;4999028;28;20283;-79
2022/06/17 06:17:55;;;;;;;25.80;24.30;;;23.90;96.90;;;;;;4993700;28;20211;-80
2022/06/17 06:20:22;;;;;;;19.95;18.98;;;23.90;97.10;;;;;;4997221;28;20261;-79
2022/06/17 06:22:48;;;;;;;16.65;15.65;;;24.40;96.50;;;;;;4996944;28;20207;-79
2022/06/17 06:25:16;;;;;;;13.32;12.43;;;24.60;96.50;;;;;;4993771;28;20204;-75
2022/06/17 06:27:42;;;;;;;9.90;9.20;;;24.80;96.00;;;;;;4993093;28;20315;-75
2022/06/17 06:30:34;;;;;;;8.55;7.95;;;25.10;95.40;;;;;;4995531;28;20187;-74
2022/06/17 06:33:01;;;;;;;9.00;8.23;;;25.00;93.70;;;;;;4991694;28;20219;-75
2022/06/17 06:35:30;;;;;;;8.63;7.93;;;24.80;93.60;;;;;;4993653;28;20214;-76
2022/06/17 06:37:57;;;;;;;8.73;8.20;;;24.80;93.60;;;;;;4992497;28;20274;-77
2022/06/17 06:40:22;;;;;;;7.65;7.13;;;24.80;92.90;;;;;;4993531;28;20200;-77
2022/06/17 06:42:50;;;;;;;8.80;7.97;;;25.20;93.00;;;;;;4993086;28;20215;-74
2022/06/17 06:45:22;;;;;;;9.48;8.88;;;25.60;91.80;;;;;;4991771;28;20219;-76
2022/06/17 06:47:50;;;;;;;6.57;6.07;;;25.80;90.10;;;;;;4993244;28;20234;-75
2022/06/17 06:50:19;;;;;;;6.30;5.70;;;25.80;88.50;;;;;;4993467;28;20184;-78
2022/06/17 06:52:45;;;;;;;12.43;6.65;;;26.00;88.50;;;;;;4994423;28;20211;-78
2022/06/17 06:55:13;;;;;;;6.40;5.97;;;26.50;86.70;;;;;;4991805;28;20557;-77
2022/06/17 06:57:44;;;;;;;5.32;4.53;;;26.20;83.70;;;;;;4992977;28;20298;-75
2022/06/17 07:00:15;;;;;;;14.88;5.72;;;26.00;80.80;;;;;;4991601;28;20188;-75
2022/06/17 07:02:41;;;;;;;5.53;5.07;;;26.40;81.20;;;;;;4990980;28;20279;-76
2022/06/17 07:05:07;;;;;;;4.93;4.60;;;26.60;80.60;;;;;;4990766;28;20696;-78
2022/06/17 07:07:33;;;;;;;6.85;6.18;;;27.00;79.40;;;;;;4990224;28;20184;-75
2022/06/17 07:09:59;;;;;;;10.38;9.77;;;27.40;75.80;;;;;;4990993;28;20168;-77
2022/06/17 07:12:25;;;;;;;12.85;11.95;;;27.80;75.00;;;;;;4992376;28;20208;-76
2022/06/17 07:14:54;;;;;;;10.23;9.48;;;27.90;71.10;;;;;;4992840;28;20231;-76
2022/06/17 07:17:20;;;;;;;9.57;8.88;;;27.50;70.10;;;;;;4993016;28;20207;-75
2022/06/17 07:19:46;;;;;;;15.30;9.48;;;27.00;71.10;;;;;;4993429;28;20176;-78
2022/06/17 07:22:12;;;;;;;11.30;10.70;;;26.70;73.10;;;;;;4993280;28;20219;-77
2022/06/17 07:24:38;;;;;;;8.57;8.13;;;27.00;72.90;;;;;;4989578;28;20299;-75
2022/06/17 07:27:04;;;;;;;7.55;7.07;;;27.00;71.80;;;;;;4991895;28;20271;-75
2022/06/17 07:29:30;;;;;;;11.50;10.80;;;27.10;69.70;;;;;;4990485;28;20618;-75
2022/06/17 07:31:57;;;;;;;10.63;10.13;;;27.30;70.30;;;;;;4991413;28;20287;-75
2022/06/17 07:34:23;;;;;;;9.20;8.43;;;27.70;68.70;;;;;;4991963;28;20535;-76
2022/06/17 07:42:22;;;;;;;10.43;9.68;;;27.00;68.00;;;;;;4996258;28;20239;-83
2022/06/17 07:44:49;;;;;;;10.88;10.18;;;26.30;69.70;;;;;;4996468;28;20211;-83
2022/06/17 07:47:18;;;;;;;11.32;10.52;;;26.10;71.10;;;;;;4994749;28;20196;-84
2022/06/17 07:49:44;;;;;;;8.13;7.55;;;26.50;69.00;;;;;;5013862;28;20239;-85
2022/06/17 07:52:10;;;;;;;9.35;8.77;;;26.90;69.10;;;;;;5013818;28;20267;-85
2022/06/17 07:54:37;;;;;;;9.45;8.80;;;26.80;69.50;;;;;;4997791;28;20191;-83
2022/06/17 07:57:03;;;;;;;9.77;9.07;;;26.70;69.70;;;;;;5013864;28;20216;-84
2022/06/17 07:59:29;;;;;;;7.75;7.15;;;27.10;68.00;;;;;;5005426;28;20188;-84
2022/06/17 08:01:55;;;;;;;6.53;6.13;;;27.40;67.50;;;;;;5005165;28;20200;-84
2022/06/17 08:04:21;;;;;;;9.07;8.40;;;27.40;67.50;;;;;;5004082;28;20204;-83
2022/06/17 08:06:50;;;;;;;10.05;9.23;;;27.70;68.50;;;;;;5007417;28;20259;-84
2022/06/17 08:09:17;;;;;;;9.23;8.55;;;28.00;68.70;;;;;;5002969;28;20194;-84
2022/06/17 08:11:43;;;;;;;7.32;6.35;;;28.10;68.70;;;;;;4996161;28;20200;-83
2022/06/17 08:14:10;;;;;;;8.93;8.32;;;28.20;67.00;;;;;;4998995;28;20184;-84
2022/06/17 08:16:36;;;;;;;7.35;6.85;;;28.20;67.10;;;;;;4998470;28;20252;-84
2022/06/17 08:19:04;;;;;;;8.27;7.88;;;27.90;67.00;;;;;;5000321;28;20188;-84
2022/06/17 08:21:30;;;;;;;9.15;8.45;;;27.80;66.90;;;;;;5001201;28;20254;-84
2022/06/17 08:23:57;;;;;;;7.53;7.03;;;27.70;65.00;;;;;;5001425;28;20210;-84
2022/06/17 08:26:22;;;;;;;11.80;11.05;;;27.50;65.60;;;;;;5008534;28;20177;-84
2022/06/17 08:28:49;;;;;;;8.82;8.13;;;28.20;67.20;;;;;;5006017;28;20191;-83
2022/06/17 08:31:14;;;;;;;8.52;7.97;;;28.70;64.90;;;;;;5005434;28;20199;-84
2022/06/17 08:33:40;;;;;;;7.35;6.78;;;28.80;64.80;;;;;;5002306;28;20252;-84
2022/06/17 08:36:10;;;;;;;15.18;14.20;;;29.20;64.70;;;;;;5001077;28;20207;-84
2022/06/17 08:38:39;;;;;;;35.60;33.65;;;29.50;62.50;;;;;;4999770;28;20184;-84
2022/06/17 08:41:23;;;;;;;31.40;29.63;;;29.60;58.60;;;;;;4998468;28;20195;-84
2022/06/17 08:44:11;;;;;;;31.83;30.02;;;29.00;60.80;;;;;;4999315;28;20232;-84
2022/06/17 08:47:06;;;;;;;26.42;25.00;;;29.10;59.70;;;;;;4997976;28;20184;-83
2022/06/17 08:49:53;;;;;;;32.25;30.63;;;29.50;62.40;;;;;;4998853;28;20728;-83
2022/06/17 08:52:33;;;;;;;32.60;30.90;;;29.60;58.30;;;;;;4997145;28;20200;-83
2022/06/17 08:55:36;;;;;;;34.58;32.78;;;29.20;58.70;;;;;;4999748;28;20216;-84
2022/06/17 08:58:46;;;;;;;30.05;28.48;;;29.10;58.00;;;;;;4999797;28;20183;-84
2022/06/17 09:01:36;;;;;;;33.75;32.03;;;29.20;56.90;;;;;;4997177;28;20215;-85
2022/06/17 09:04:14;;;;;;;34.72;32.97;;;29.70;58.40;;;;;;4999914;28;20223;-84
2022/06/17 09:06:56;;;;;;;37.63;35.40;;;30.20;58.30;;;;;;5001589;28;20211;-85
2022/06/17 09:09:52;;;;;;;39.65;37.38;;;30.20;57.20;;;;;;5016519;28;20296;-84
2022/06/17 09:12:50;;;;;;;37.97;36.13;;;30.10;57.80;;;;;;5002779;28;20208;-84
2022/06/17 09:15:36;;;;;;;41.38;39.40;;;30.10;57.10;;;;;;4998263;28;20176;-86
2022/06/17 09:18:09;;;;;;;30.38;28.52;;;30.00;56.50;;;;;;4998551;28;20188;-85
2022/06/17 09:20:42;;;;;;;43.88;41.75;;;29.60;57.10;;;;;;4997843;28;20172;-85
2022/06/17 09:23:11;;;;;;;39.45;37.50;;;29.50;57.00;;;;;;4996984;28;20247;-84
2022/06/17 09:25:41;;;;;;;22.80;21.55;;;29.30;57.70;;;;;;4997480;28;20220;-85
2022/06/17 09:28:12;;;;;;;24.33;22.92;;;29.90;59.90;;;;;;4997154;28;20200;-84
2022/06/17 09:30:47;;;;;;;25.95;24.67;;;30.80;55.00;;;;;;4997910;28;20181;-84
2022/06/17 09:33:36;;;;;;;25.38;24.13;;;30.90;53.90;;;;;;4997396;28;20174;-85
2022/06/17 09:36:14;;;;;;;19.95;18.95;;;30.90;53.70;;;;;;4996956;28;20196;-84
2022/06/17 09:38:47;;;;;;;19.98;18.80;;;30.80;53.30;;;;;;4996437;28;20278;-84
2022/06/17 09:41:39;;;;;;;19.60;18.63;;;31.00;54.10;;;;;;5002991;28;20280;-85
2022/06/17 09:44:14;;;;;;;28.33;26.88;;;30.20;54.80;;;;;;5001827;28;20697;-84
2022/06/17 09:46:44;;;;;;;23.67;22.25;;;30.40;56.10;;;;;;5005111;28;20184;-83
2022/06/17 09:49:28;;;;;;;26.65;25.30;;;30.60;55.50;;;;;;5000786;28;20180;-86
2022/06/17 09:52:05;;;;;;;29.05;27.50;;;30.30;55.80;;;;;;4996986;28;20219;-84
2022/06/17 09:54:49;;;;;;;18.45;17.40;;;30.60;56.80;;;;;;5000320;28;20192;-86
2022/06/17 09:57:38;;;;;;;21.77;20.48;;;31.10;55.20;;;;;;4999164;28;20716;-85
2022/06/17 10:00:15;;;;;;;19.55;18.52;;;31.00;55.70;;;;;;4997947;28;20254;-87
2022/06/17 10:02:46;;;;;;;24.10;22.75;;;31.10;54.50;;;;;;4997260;28;20226;-82
2022/06/17 10:05:38;;;;;;;18.98;17.85;;;30.70;54.80;;;;;;4995415;28;20887;-75
2022/06/17 10:08:23;;;;;;;22.35;21.05;;;30.90;55.30;;;;;;4992652;28;20657;-77
2022/06/17 10:11:23;;;;;;;26.42;24.85;;;30.80;54.70;;;;;;4993055;28;20188;-77
2022/06/17 10:13:57;;;;;;;18.13;17.30;;;30.80;54.70;;;;;;4992304;28;20515;-77
2022/06/17 10:19:31;;;;;;;22.48;20.95;;;31.20;52.70;;;;;;4999117;28;20180;-83
2022/06/17 10:22:18;;;;;;;83.20;78.88;;;31.70;53.90;;;;;;5000341;28;20696;-79
2022/06/17 10:25:12;;;;;;;136.00;129.15;;;32.30;51.80;;;;;;4998131;28;20211;-83
2022/06/17 10:27:58;;;;;;;163.80;148.13;;;32.80;50.30;;;;;;4998044;28;20176;-82
2022/06/17 10:30:43;;;;;;;121.00;110.20;;;32.50;51.80;;;;;;4999748;28;20675;-81
2022/06/17 10:33:14;;;;;;;159.15;151.38;;;32.40;54.30;;;;;;4996622;28;20208;-79
2022/06/17 10:35:42;;;;;;;174.23;165.60;;;33.30;51.50;;;;;;4992196;28;20189;-80
2022/06/17 10:38:25;;;;;;;194.93;185.38;;;33.50;49.80;;;;;;4991936;28;20195;-80
2022/06/17 10:40:51;;;;;;;207.07;197.10;;;32.70;50.50;;;;;;4996320;28;20219;-77
2022/06/17 10:43:42;;;;;;;213.27;202.63;;;32.50;50.40;;;;;;5027613;22;20793;-77
2022/06/17 10:46:14;;;;;;;196.15;186.55;;;32.80;50.30;;;;;;5009981;28;20203;-79
2022/06/17 10:48:53;;;;;;;204.30;194.40;;;33.00;49.50;;;;;;5013635;28;20190;-81
2022/06/17 10:51:19;;;;;;;178.70;169.98;;;33.00;50.20;;;;;;5016544;28;20184;-80
2022/06/17 10:53:53;;;;;;;135.07;128.60;;;33.20;49.70;;;;;;5033783;28;20206;-80
2022/06/17 10:56:28;;;;;;;121.80;115.68;;;33.50;46.40;;;;;;5035253;28;20225;-82
2022/06/17 10:58:59;;;;;;;106.38;101.18;;;33.60;45.70;;;;;;5034685;28;20241;-81
2022/06/17 11:01:41;;;;;;;162.05;154.02;;;33.40;46.90;;;;;;5052803;28;20210;-82
2022/06/17 11:04:16;;;;;;;57.95;55.17;;;33.70;48.70;;;;;;5048037;28;20245;-81
2022/06/17 11:07:18;;;;;;;57.08;54.28;;;34.30;42.50;;;;;;5034470;28;20259;-82
2022/06/17 11:09:52;;;;;;;50.40;47.83;;;34.00;41.70;;;;;;5026279;28;20282;-82
2022/06/17 11:12:26;;;;;;;54.90;52.05;;;33.90;41.90;;;;;;5043311;28;20201;-82
2022/06/17 11:14:56;;;;;;;19.88;18.95;;;34.80;39.50;;;;;;5019141;28;20183;-81
2022/06/17 11:17:42;;;;;;;15.52;14.82;;;35.00;38.50;;;;;;5023584;28;20232;-83
2022/06/17 11:20:21;;;;;;;4.65;4.35;;;35.20;39.50;;;;;;5041919;28;20175;-82
2022/06/17 11:23:17;;;;;;;5.93;5.53;;;35.90;35.10;;;;;;5038467;28;20209;-77
2022/06/17 11:25:44;;;;;;;4.97;4.70;;;35.90;36.70;;;;;;5035775;28;20257;-78
2022/06/17 11:28:32;;;;;;;4.25;3.95;;;35.70;38.90;;;;;;5030558;28;20203;-78
2022/06/17 11:31:01;;;;;;;3.88;3.67;;;36.00;39.20;;;;;;5032194;28;20608;-78
2022/06/17 11:33:33;;;;;;;4.00;3.70;;;36.50;37.60;;;;;;5033865;28;20222;-77
2022/06/17 11:36:04;;;;;;;5.40;5.00;;;36.50;37.30;;;;;;5033723;28;20225;-78
2022/06/17 11:38:32;;;;;;;3.38;3.28;;;36.40;39.10;;;;;;5033028;28;20274;-80
2022/06/17 11:41:00;;;;;;;3.03;2.83;;;36.50;35.30;;;;;;5034388;28;20178;-78
2022/06/17 11:43:47;;;;;;;4.03;2.85;;;36.40;37.00;;;;;;5031593;28;20210;-80
2022/06/17 11:46:25;;;;;;;3.50;3.20;;;36.50;38.00;;;;;;5040639;28;20206;-77
2022/06/17 11:49:00;;;;;;;3.00;2.80;;;36.70;35.20;;;;;;5042140;28;20264;-78
2022/06/17 11:51:33;;;;;;;3.40;3.08;;;37.20;35.00;;;;;;5017409;28;20270;-82
2022/06/17 11:54:23;;;;;;;3.50;3.30;;;36.60;34.70;;;;;;5033989;28;20191;-78
2022/06/17 11:56:51;;;;;;;3.03;2.92;;;36.10;36.10;;;;;;5037369;28;20280;-82
2022/06/17 11:59:23;;;;;;;2.75;2.65;;;35.90;35.60;;;;;;5036429;28;20175;-81
2022/06/17 12:02:05;;;;;;;4.00;3.70;;;36.30;34.80;;;;;;5034254;28;20822;-79
2022/06/17 12:04:45;;;;;;;3.95;3.65;;;36.90;34.50;;;;;;5034100;28;20269;-79
2022/06/17 12:07:25;;;;;;;3.75;3.45;;;36.90;36.10;;;;;;5034676;28;20175;-78
2022/06/17 12:10:23;;;;;;;3.95;3.63;;;36.40;34.90;;;;;;5034367;28;20182;-79
2022/06/17 12:12:52;;;;;;;3.72;3.58;;;36.70;35.60;;;;;;5013794;28;20231;-79
2022/06/17 12:15:26;;;;;;;3.05;2.95;;;36.50;35.30;;;;;;5013949;28;20667;-78
2022/06/17 12:17:53;;;;;;;4.03;3.72;;;36.60;35.40;;;;;;5015481;28;20262;-78
2022/06/17 12:20:45;;;;;;;5.75;5.45;;;36.80;35.50;;;;;;5015908;28;20175;-77
2022/06/17 12:23:32;;;;;;;4.50;4.20;;;37.10;34.40;;;;;;5015698;28;20302;-79
2022/06/17 12:26:03;;;;;;;4.07;3.78;;;37.20;35.80;;;;;;5025158;28;20214;-77
2022/06/17 12:28:32;;;;;;;3.42;3.33;;;36.60;36.80;;;;;;5035142;28;20552;-80
2022/06/17 12:31:30;;;;;;;3.58;3.25;;;35.80;38.10;;;;;;5038627;28;20250;-77
2022/06/17 12:34:20;;;;;;;3.65;3.45;;;35.60;37.50;;;;;;5039119;28;20252;-78
2022/06/17 12:36:53;;;;;;;3.60;3.40;;;36.30;37.70;;;;;;5031845;28;20187;-79
2022/06/17 12:39:33;;;;;;;3.65;3.33;;;36.10;36.70;;;;;;5034564;28;20185;-78
2022/06/17 12:42:05;;;;;;;3.60;3.33;;;35.70;36.70;;;;;;5033795;28;20301;-79
2022/06/17 12:44:34;;;;;;;4.07;3.88;;;36.20;37.00;;;;;;5035120;28;20794;-80
2022/06/17 12:47:20;;;;;;;3.72;3.63;;;36.20;35.60;;;;;;5034123;28;20217;-81
2022/06/17 12:53:16;;;;;;;4.05;3.60;;;36.70;35.80;;;;;;5024786;28;20203;-80
2022/06/17 12:56:22;;;;;;;4.15;3.85;;;36.60;35.80;;;;;;5035715;28;20186;-77
2022/06/17 12:59:22;;;;;;;4.68;4.45;;;36.70;35.20;;;;;;5032165;28;20210;-81
2022/06/17 13:01:57;;;;;;;3.65;3.45;;;36.60;35.10;;;;;;5033236;28;20203;-79
2022/06/17 13:04:41;;;;;;;4.55;4.35;;;36.90;36.40;;;;;;5035592;28;20332;-77
2022/06/17 13:07:28;;;;;;;3.97;3.78;;;37.40;35.20;;;;;;5034768;28;20563;-78
2022/06/17 13:10:39;;;;;;;3.67;3.47;;;37.00;33.20;;;;;;5034903;28;20562;-78
2022/06/17 13:13:10;;;;;;;3.65;3.05;;;37.80;35.20;;;;;;5037105;28;20207;-79
2022/06/17 13:15:53;;;;;;;3.75;3.45;;;37.50;33.70;;;;;;5040773;28;20213;-77
2022/06/17 13:18:48;;;;;;;4.40;4.05;;;37.30;34.40;;;;;;5036131;28;20195;-79
2022/06/17 13:21:14;;;;;;;4.35;4.05;;;37.00;36.00;;;;;;5037188;28;20572;-77
2022/06/17 13:23:52;;;;;;;4.28;4.07;;;37.50;35.00;;;;;;5036194;28;20186;-78